createdAt,value
2023-01-19T00:04:31.592Z,15.4
2023-01-19T00:09:37.631Z,15.4
2023-01-19T00:14:43.749Z,15.4
2023-01-19T00:19:49.875Z,15.4
2023-01-19T00:24:55.893Z,15.4
2023-01-19T00:30:01.978Z,15.4
2023-01-19T00:35:08.099Z,15.4
2023-01-19T00:40:14.141Z,15.3
2023-01-19T00:45:20.304Z,15.3
2023-01-19T00:50:26.461Z,15.3
2023-01-19T00:55:32.271Z,15.3
2023-01-19T01:00:38.471Z,15.3
2023-01-19T01:05:44.628Z,15.3
2023-01-19T01:10:50.846Z,15.3
2023-01-19T01:15:56.982Z,15.3
2023-01-19T01:21:03.136Z,15.3
2023-01-19T01:26:09.293Z,15.2
2023-01-19T01:31:15.352Z,15.2
2023-01-19T01:36:21.634Z,15.2
2023-01-19T01:41:27.581Z,15.2
2023-01-19T01:46:33.894Z,15.2
2023-01-19T01:51:40.059Z,15.2
2023-01-19T01:56:46.156Z,15.2
2023-01-19T02:01:52.351Z,15.2
2023-01-19T02:06:58.326Z,15.2
2023-01-19T02:12:04.590Z,15.2
2023-01-19T02:17:10.855Z,15.1
2023-01-19T02:22:17.302Z,15.1
2023-01-19T02:27:23.525Z,15.1
2023-01-19T02:32:29.788Z,15.1
2023-01-19T02:37:36.048Z,15.1
2023-01-19T02:42:42.167Z,15.1
2023-01-19T02:47:48.594Z,15.1
2023-01-19T02:52:54.814Z,15.1
2023-01-19T02:58:00.982Z,15.1
2023-01-19T03:03:07.235Z,15.1
2023-01-19T03:08:13.698Z,15.1
2023-01-19T03:13:19.925Z,15
2023-01-19T03:18:26.482Z,15
2023-01-19T03:23:32.884Z,15
2023-01-19T03:28:39.352Z,15
2023-01-19T03:33:45.793Z,15
2023-01-19T03:38:52.289Z,15
2023-01-19T03:43:58.727Z,15
2023-01-19T03:49:05.305Z,15
2023-01-19T03:54:11.716Z,15
2023-01-19T03:59:18.214Z,14.9
2023-01-19T04:04:24.676Z,14.9
2023-01-19T04:09:31.123Z,14.9
2023-01-19T04:14:37.512Z,14.9
2023-01-19T04:19:44.038Z,14.9
2023-01-19T04:24:51.065Z,14.9
2023-01-19T04:29:58.045Z,14.9
2023-01-19T04:35:05.029Z,14.9
2023-01-19T04:40:12.004Z,14.9
2023-01-19T04:45:19.034Z,14.9
2023-01-19T04:50:26.104Z,14.9
2023-01-19T04:55:32.915Z,14.9
2023-01-19T05:00:40.057Z,14.8
2023-01-19T05:05:47.131Z,14.8
2023-01-19T05:10:54.001Z,14.8
2023-01-19T05:16:01.174Z,14.8
2023-01-19T05:21:08.130Z,14.8
2023-01-19T05:26:15.090Z,14.8
2023-01-19T05:31:22.964Z,14.8
2023-01-19T05:36:30.774Z,14.8
2023-01-19T05:41:38.573Z,14.8
2023-01-19T05:46:46.433Z,14.8
2023-01-19T05:57:02.082Z,14.8
2023-01-19T06:02:09.747Z,14.8
2023-01-19T06:07:17.681Z,14.8
2023-01-19T06:12:25.635Z,14.8
2023-01-19T06:17:33.291Z,14.8
2023-01-19T06:22:41.225Z,14.8
2023-01-19T06:27:49.066Z,14.9
2023-01-19T06:32:56.833Z,14.9
2023-01-19T06:38:04.742Z,14.9
2023-01-19T06:43:12.491Z,14.9
2023-01-19T06:48:20.373Z,14.9
2023-01-19T06:53:28.188Z,14.9
2023-01-19T06:58:35.943Z,14.9
2023-01-19T07:03:43.818Z,14.9
2023-01-19T07:08:51.671Z,15
2023-01-19T07:13:59.522Z,15
2023-01-19T07:19:07.165Z,15
2023-01-19T07:24:15.212Z,15
2023-01-19T07:29:22.966Z,15
2023-01-19T07:34:30.874Z,15
2023-01-19T07:39:37.203Z,15
2023-01-19T07:44:43.282Z,15
2023-01-19T07:49:49.295Z,15
2023-01-19T07:54:55.485Z,15
2023-01-19T08:00:01.638Z,15
2023-01-19T08:05:07.625Z,15
2023-01-19T08:10:13.564Z,15
2023-01-19T08:15:19.665Z,15
2023-01-19T08:20:25.743Z,15
2023-01-19T08:25:31.838Z,15
2023-01-19T08:30:38.048Z,15
2023-01-19T08:35:44.042Z,15
2023-01-19T08:40:50.158Z,15
2023-01-19T08:45:56.191Z,15
2023-01-19T08:51:02.287Z,15
2023-01-19T08:56:08.416Z,15
2023-01-19T09:01:14.609Z,15
2023-01-19T09:06:20.718Z,15
2023-01-19T09:11:26.625Z,15
2023-01-19T09:16:32.737Z,15
2023-01-19T09:21:38.805Z,15
2023-01-19T09:26:44.899Z,15
2023-01-19T09:31:51.064Z,15
2023-01-19T09:36:57.077Z,15
2023-01-19T09:42:03.258Z,15
2023-01-19T09:47:09.319Z,15
2023-01-19T09:52:15.536Z,15
2023-01-19T09:57:21.721Z,15
2023-01-19T10:02:27.772Z,15
2023-01-19T10:07:33.918Z,15
2023-01-19T10:12:40.065Z,15
2023-01-19T10:17:46.212Z,15
2023-01-19T10:22:52.467Z,15
2023-01-19T10:27:58.531Z,15
2023-01-19T10:33:04.704Z,15.2
2023-01-19T10:38:10.831Z,15.4
2023-01-19T10:43:16.975Z,15.5
2023-01-19T10:48:23.162Z,15.7
2023-01-19T10:53:29.444Z,15.8
2023-01-19T10:58:35.731Z,16
2023-01-19T11:03:41.914Z,16.2
2023-01-19T11:08:48.268Z,16.4
2023-01-19T11:13:54.444Z,16.5
2023-01-19T11:19:00.708Z,16.7
2023-01-19T11:24:06.980Z,16.8
2023-01-19T11:29:13.291Z,16.9
2023-01-19T11:34:19.507Z,17.1
2023-01-19T11:39:25.770Z,17.2
2023-01-19T11:44:32.059Z,17.2
2023-01-19T11:49:38.296Z,17.3
2023-01-19T11:54:44.585Z,17.3
2023-01-19T11:59:51.030Z,17.1
2023-01-19T12:04:57.522Z,17
2023-01-19T12:10:03.975Z,17
2023-01-19T12:15:10.455Z,17.1
2023-01-19T12:20:16.918Z,17.1
2023-01-19T12:25:23.401Z,17.1
2023-01-19T12:30:29.857Z,17
2023-01-19T12:35:36.325Z,17
2023-01-19T12:40:42.797Z,17
2023-01-19T12:45:49.267Z,17
2023-01-19T12:50:55.735Z,17
2023-01-19T12:56:02.232Z,16.9
2023-01-19T13:01:08.680Z,17
2023-01-19T13:06:15.706Z,16.9
2023-01-19T13:11:22.704Z,17
2023-01-19T13:16:29.701Z,17
2023-01-19T13:21:36.711Z,17
2023-01-19T13:26:43.752Z,16.9
2023-01-19T13:31:50.722Z,16.9
2023-01-19T13:36:57.728Z,16.9
2023-01-19T13:42:04.737Z,16.9
2023-01-19T13:47:11.731Z,17
2023-01-19T13:52:18.735Z,17
2023-01-19T13:57:25.737Z,17
2023-01-19T14:02:32.754Z,17
2023-01-19T14:07:39.792Z,17
2023-01-19T14:12:47.598Z,17
2023-01-19T14:17:55.431Z,16.9
2023-01-19T14:23:03.262Z,17
2023-01-19T14:28:11.082Z,17
2023-01-19T14:33:18.916Z,17.1
2023-01-19T14:38:26.735Z,17.2
2023-01-19T14:43:34.573Z,17.3
2023-01-19T14:48:40.871Z,17.3
2023-01-19T14:53:46.995Z,17.3
2023-01-19T14:58:53.146Z,17.2
2023-01-19T15:03:59.300Z,17.2
2023-01-19T15:09:05.456Z,17.3
2023-01-19T15:14:11.601Z,17.3
2023-01-19T15:19:17.771Z,17.4
2023-01-19T15:24:23.907Z,17.4
2023-01-19T15:29:30.066Z,17.4
2023-01-19T15:34:36.260Z,17.3
2023-01-19T15:39:42.354Z,17.3
2023-01-19T15:44:48.524Z,17.4
2023-01-19T15:49:54.691Z,17.4
2023-01-19T15:55:00.816Z,17.5
2023-01-19T16:00:06.990Z,17.5
2023-01-19T16:05:13.113Z,17.5
2023-01-19T16:10:19.267Z,17.4
2023-01-19T16:15:25.448Z,17.3
2023-01-19T16:20:31.573Z,17.3
2023-01-19T16:25:37.716Z,17.2
2023-01-19T16:30:43.867Z,17.2
2023-01-19T16:35:50.029Z,17.2
2023-01-19T16:40:56.179Z,17.2
2023-01-19T16:46:02.330Z,17.2
2023-01-19T16:51:08.490Z,17.2
2023-01-19T16:56:14.742Z,17.2
2023-01-19T17:01:21.031Z,17.2
2023-01-19T17:06:27.269Z,17.1
2023-01-19T17:11:33.544Z,17.1
2023-01-19T17:16:39.807Z,17.1
2023-01-19T17:21:46.072Z,17.1
2023-01-19T17:26:52.332Z,17.1
2023-01-19T17:31:58.624Z,17.1
2023-01-19T17:37:04.862Z,17.1
2023-01-19T17:42:11.119Z,17.1
2023-01-19T17:47:17.408Z,17.1
2023-01-19T17:52:23.646Z,17.1
2023-01-19T17:57:29.942Z,17.1
2023-01-19T18:02:36.407Z,17.1
2023-01-19T18:07:42.865Z,17.1
2023-01-19T18:12:49.332Z,17
2023-01-19T18:17:55.810Z,17
2023-01-19T18:23:02.341Z,17
2023-01-19T18:28:08.771Z,17
2023-01-19T18:33:15.217Z,17
2023-01-19T18:38:21.691Z,17
2023-01-19T18:43:28.180Z,17
2023-01-19T18:48:34.687Z,17.1
2023-01-19T18:53:41.099Z,17.1
2023-01-19T18:58:47.573Z,17.1
2023-01-19T19:03:54.044Z,17.1
2023-01-19T19:09:01.074Z,17.1
2023-01-19T19:19:15.064Z,17.1
2023-01-19T19:24:22.069Z,17.1
2023-01-19T19:29:29.093Z,17
2023-01-19T19:34:36.087Z,17
2023-01-19T19:39:43.075Z,16.9
2023-01-19T19:44:50.090Z,16.9
2023-01-19T19:49:57.085Z,16.8
2023-01-19T19:55:04.099Z,16.8
2023-01-19T20:00:11.097Z,16.8
2023-01-19T20:05:18.097Z,16.7
2023-01-19T20:10:25.116Z,16.7
2023-01-19T20:15:32.950Z,16.6
2023-01-19T20:20:40.779Z,16.6
2023-01-19T20:25:48.607Z,16.6
2023-01-19T20:30:56.444Z,16.5
2023-01-19T20:36:02.716Z,16.5
2023-01-19T20:41:08.864Z,16.5
2023-01-19T20:46:15.024Z,16.4
2023-01-19T20:51:21.196Z,16.4
2023-01-19T20:56:27.319Z,16.4
2023-01-19T21:01:33.495Z,16.4
2023-01-19T21:06:39.622Z,16.3
2023-01-19T21:11:44.817Z,16.3
2023-01-19T21:16:50.976Z,16.3
2023-01-19T21:21:57.118Z,16.3
2023-01-19T21:27:03.275Z,16.2
2023-01-19T21:32:09.423Z,16.2
2023-01-19T21:37:15.577Z,16.2
2023-01-19T21:42:21.738Z,16.2
2023-01-19T21:47:26.889Z,16.1
2023-01-19T21:52:32.973Z,16.1
2023-01-19T21:57:39.085Z,16.1
2023-01-19T22:02:44.170Z,16.1
2023-01-19T22:07:50.264Z,16.1
2023-01-19T22:12:56.348Z,16
2023-01-19T22:18:02.529Z,16
2023-01-19T22:23:08.560Z,16
2023-01-19T22:28:14.616Z,16
2023-01-19T22:33:20.711Z,16
2023-01-19T22:38:26.796Z,15.9
2023-01-19T22:43:32.894Z,15.9
2023-01-19T22:48:38.981Z,15.9
2023-01-19T22:53:45.071Z,15.9
2023-01-19T22:58:51.152Z,15.9
2023-01-19T23:03:57.249Z,15.9
2023-01-19T23:09:03.370Z,15.9
2023-01-19T23:14:09.479Z,15.8
2023-01-19T23:19:15.523Z,15.8
2023-01-19T23:24:21.653Z,15.8
2023-01-19T23:29:27.680Z,15.8
2023-01-19T23:34:33.765Z,15.8
2023-01-19T23:39:39.864Z,15.8
2023-01-19T23:44:44.988Z,15.8
2023-01-19T23:49:51.064Z,15.8
2023-01-19T23:54:57.154Z,15.7
